Time;durP1;ratioP1;P1;durP2;ratioP2;P2;SDS_P1;SDS_P2;PMS_P1;PMS_P2;Temp;Humidity;BMP_temperature;BMP_pressure;BME280_temperature;BME280_humidity;BME280_pressure;Samples;Min_cycle;Max_cycle;Signal;HPM_P1;HPM_P2
2020/02/28 00:01:09;;;;;;;0.6;0.5;;;;;;;2.25;87.46387;928.8669;;;;
2020/02/28 00:03:32;;;;;;;0.4;0.4;;;;;;;2.35;87.6748;928.9933;;;;
2020/02/28 00:05:57;;;;;;;0.3;0.3;;;;;;;2.57;87.0918;928.985;;;;
2020/02/28 00:08:23;;;;;;;0.7;0.4;;;;;;;2.71;86.3252;929.0592;;;;
2020/02/28 00:10:48;;;;;;;0.2;0.2;;;;;;;2.49;86.60449;929.1824;;;;
2020/02/28 00:13:13;;;;;;;0.7;0.3;;;;;;;2.47;86.71289;929.0335;;;;
2020/02/28 00:15:38;;;;;;;0.3;0.3;;;;;;;2.54;86.80566;929.2639;;;;
2020/02/28 00:18:03;;;;;;;1.3;0.7;;;;;;;2.52;87.16113;929.2486;;;;
2020/02/28 00:20:28;;;;;;;0.7;0.5;;;;;;;2.75;86.41113;929.2811;;;;
2020/02/28 00:22:53;;;;;;;0.7;0.4;;;;;;;2.92;85.04199;929.3182;;;;
2020/02/28 00:25:18;;;;;;;0.2;0.2;;;;;;;3;84.59863;929.4506;;;;
2020/02/28 00:27:44;;;;;;;0.2;0.2;;;;;;;3.09;83.6084;929.5002;;;;
2020/02/28 00:30:09;;;;;;;0.2;0.2;;;;;;;3.01;83.42383;929.4252;;;;
2020/02/28 00:32:34;;;;;;;0.4;0.3;;;;;;;2.95;83.56738;929.5768;;;;
2020/02/28 00:34:59;;;;;;;0.2;0.2;;;;;;;2.95;83.71289;929.69;;;;
2020/02/28 00:37:24;;;;;;;0.8;0.3;;;;;;;2.95;84.07324;929.7939;;;;
2020/02/28 00:39:50;;;;;;;0.4;0.3;;;;;;;2.8;83.49512;929.8674;;;;
2020/02/28 00:42:15;;;;;;;1;0.4;;;;;;;2.69;84.96484;929.8086;;;;
2020/02/28 00:44:40;;;;;;;0.3;0.2;;;;;;;2.6;84.96973;929.8708;;;;
2020/02/28 00:47:05;;;;;;;0.6;0.2;;;;;;;2.53;84.67285;929.878;;;;
2020/02/28 00:49:30;;;;;;;0.4;0.2;;;;;;;2.61;84.50098;929.9645;;;;
2020/02/28 00:51:56;;;;;;;0.3;0.3;;;;;;;2.66;84.61035;930.0419;;;;
2020/02/28 00:54:21;;;;;;;0.8;0.3;;;;;;;2.85;84.16797;930.0463;;;;
2020/02/28 00:56:46;;;;;;;0.7;0.4;;;;;;;2.87;84.00098;930.1859;;;;
2020/02/28 00:59:12;;;;;;;0.3;0.3;;;;;;;3.08;83.63867;930.3335;;;;
2020/02/28 01:01:37;;;;;;;0.7;0.4;;;;;;;;;;;;;
2020/02/28 01:04:02;;;;;;;0.5;0.4;;;;;;;;;;;;;
2020/02/28 01:06:27;;;;;;;0.7;0.5;;;;;;;;;;;;;
2020/02/28 01:08:52;;;;;;;0.3;0.3;;;;;;;;;;;;;
2020/02/28 01:11:18;;;;;;;0.5;0.5;;;;;;;;;;;;;
2020/02/28 01:13:42;;;;;;;1.5;0.4;;;;;;;;;;;;;
2020/02/28 01:16:07;;;;;;;0.5;0.5;;;;;;;;;;;;;
2020/02/28 01:18:32;;;;;;;0.6;0.5;;;;;;;;;;;;;
2020/02/28 01:20:57;;;;;;;0.6;0.6;;;;;;;;;;;;;
2020/02/28 01:23:22;;;;;;;0.5;0.5;;;;;;;;;;;;;
2020/02/28 01:25:47;;;;;;;1;0.5;;;;;;;;;;;;;
2020/02/28 01:28:12;;;;;;;0.5;0.5;;;;;;;;;;;;;
2020/02/28 01:30:38;;;;;;;1;0.4;;;;;;;;;;;;;
2020/02/28 01:33:16;;;;;;;0.4;0.4;;;;;;;;;;;;;
2020/02/28 01:35:28;;;;;;;1.5;0.5;;;;;;;;;;;;;
2020/02/28 01:37:53;;;;;;;0.5;0.5;;;;;;;;;;;;;
2020/02/28 01:40:18;;;;;;;0.9;0.4;;;;;;;;;;;;;
2020/02/28 01:42:43;;;;;;;0.5;0.5;;;;;;;;;;;;;
2020/02/28 01:45:08;;;;;;;0.8;0.5;;;;;;;;;;;;;
2020/02/28 01:47:33;;;;;;;3.4;1.2;;;;;;;;;;;;;
2020/02/28 01:49:58;;;;;;;1.9;0.8;;;;;;;;;;;;;
2020/02/28 01:52:23;;;;;;;2.2;0.9;;;;;;;;;;;;;
2020/02/28 01:54:49;;;;;;;0.9;0.5;;;;;;;;;;;;;
2020/02/28 01:57:14;;;;;;;2.7;1;;;;;;;;;;;;;
2020/02/28 01:59:39;;;;;;;0.5;0.5;;;;;;;;;;;;;
2020/02/28 02:02:04;;;;;;;0.7;0.5;;;;;;;;;;;;;
2020/02/28 02:04:29;;;;;;;0.7;0.5;;;;;;;;;;;;;
2020/02/28 02:06:54;;;;;;;0.5;0.5;;;;;;;;;;;;;
2020/02/28 02:09:19;;;;;;;0.9;0.5;;;;;;;;;;;;;
2020/02/28 02:11:44;;;;;;;1.4;0.6;;;;;;;;;;;;;
2020/02/28 02:14:09;;;;;;;0.6;0.4;;;;;;;;;;;;;
2020/02/28 02:16:34;;;;;;;0.7;0.4;;;;;;;;;;;;;
2020/02/28 02:19:00;;;;;;;0.7;0.5;;;;;;;;;;;;;
2020/02/28 02:21:25;;;;;;;1.2;0.5;;;;;;;;;;;;;
2020/02/28 02:23:50;;;;;;;1.1;0.7;;;;;;;;;;;;;
2020/02/28 02:26:15;;;;;;;0.6;0.4;;;;;;;;;;;;;
2020/02/28 02:28:40;;;;;;;2;1.6;;;;;;;;;;;;;
2020/02/28 02:31:05;;;;;;;1.2;0.4;;;;;;;;;;;;;
2020/02/28 02:33:31;;;;;;;1.1;1;;;;;;;;;;;;;
2020/02/28 02:35:56;;;;;;;2.5;2.1;;;;;;;;;;;;;
2020/02/28 02:38:21;;;;;;;19.6;17.5;;;;;;;;;;;;;
2020/02/28 02:40:52;;;;;;;5.6;4.4;;;;;;;;;;;;;
2020/02/28 02:43:15;;;;;;;0.5;0.5;;;;;;;;;;;;;
2020/02/28 02:45:37;;;;;;;0.3;0.3;;;;;;;;;;;;;
2020/02/28 02:48:01;;;;;;;0.4;0.4;;;;;;;;;;;;;
2020/02/28 02:50:26;;;;;;;0.9;0.4;;;;;;;;;;;;;
2020/02/28 02:52:52;;;;;;;1;0.6;;;;;;;;;;;;;
2020/02/28 02:55:17;;;;;;;1.7;0.7;;;;;;;;;;;;;
2020/02/28 02:57:42;;;;;;;0.4;0.4;;;;;;;;;;;;;
2020/02/28 03:00:07;;;;;;;1.3;0.4;;;;;;;;;;;;;
2020/02/28 03:02:32;;;;;;;0.8;0.4;;;;;;;;;;;;;
2020/02/28 03:04:58;;;;;;;0.3;0.3;;;;;;;;;;;;;
2020/02/28 03:07:23;;;;;;;0.6;0.4;;;;;;;;;;;;;
2020/02/28 03:09:48;;;;;;;0.5;0.5;;;;;;;;;;;;;
2020/02/28 03:12:13;;;;;;;0.6;0.5;;;;;;;;;;;;;
2020/02/28 03:14:38;;;;;;;1.8;0.7;;;;;;;;;;;;;
2020/02/28 03:17:03;;;;;;;0.8;0.6;;;;;;;;;;;;;
2020/02/28 03:19:28;;;;;;;1.3;0.6;;;;;;;;;;;;;
2020/02/28 03:21:53;;;;;;;1.8;0.7;;;;;;;;;;;;;
2020/02/28 03:24:19;;;;;;;0.5;0.5;;;;;;;;;;;;;
2020/02/28 03:26:45;;;;;;;0.6;0.6;;;;;;;;;;;;;
2020/02/28 03:29:09;;;;;;;1;0.5;;;;;;;;;;;;;
2020/02/28 03:31:34;;;;;;;0.8;0.6;;;;;;;;;;;;;
2020/02/28 03:34:00;;;;;;;0.7;0.5;;;;;;;;;;;;;
2020/02/28 03:36:24;;;;;;;1.2;0.7;;;;;;;;;;;;;
2020/02/28 03:38:50;;;;;;;1.7;0.7;;;;;;;;;;;;;
2020/02/28 03:41:15;;;;;;;4.8;0.9;;;;;;;;;;;;;
2020/02/28 03:43:40;;;;;;;0.9;0.5;;;;;;;;;;;;;
2020/02/28 03:46:05;;;;;;;0.7;0.5;;;;;;;;;;;;;
2020/02/28 03:48:30;;;;;;;1.7;0.7;;;;;;;;;;;;;
2020/02/28 03:50:55;;;;;;;0.7;0.5;;;;;;;;;;;;;
2020/02/28 03:53:20;;;;;;;1.5;0.7;;;;;;;;;;;;;
2020/02/28 03:55:45;;;;;;;1.1;0.7;;;;;;;;;;;;;
2020/02/28 03:58:11;;;;;;;0.8;0.7;;;;;;;;;;;;;
2020/02/28 04:02:30;;;;;;;0.9;0.6;;;;;;;2.15;73.24609;934.62;;;;
2020/02/28 04:04:55;;;;;;;1.4;0.7;;;;;;;1.98;73.89746;934.4167;;;;
2020/02/28 04:07:20;;;;;;;1.3;0.7;;;;;;;2.18;74.86328;934.8918;;;;
2020/02/28 04:09:46;;;;;;;4.1;0.7;;;;;;;1.89;74.99121;934.6757;;;;
2020/02/28 04:12:13;;;;;;;1.4;0.7;;;;;;;1.94;74.9541;934.6429;;;;
2020/02/28 04:14:35;;;;;;;1.4;0.6;;;;;;;2.09;73.55957;934.8848;;;;
2020/02/28 04:17:00;;;;;;;0.9;0.7;;;;;;;1.91;73.14648;934.9174;;;;
2020/02/28 04:19:26;;;;;;;0.9;0.5;;;;;;;1.89;66.63281;934.956;;;;
2020/02/28 04:21:51;;;;;;;1.7;0.6;;;;;;;2.05;70.08398;935.0812;;;;
2020/02/28 04:24:16;;;;;;;0.9;0.5;;;;;;;2.03;71.84766;935.1347;;;;
2020/02/28 04:26:41;;;;;;;1.5;0.9;;;;;;;2.11;72.73633;935.1794;;;;
2020/02/28 04:29:06;;;;;;;1;0.7;;;;;;;2.08;74.12793;935.1145;;;;
2020/02/28 04:31:31;;;;;;;1;0.8;;;;;;;2.26;73.27441;935.1251;;;;
2020/02/28 04:33:56;;;;;;;0.6;0.6;;;;;;;2.18;71.40332;935.4033;;;;
2020/02/28 04:36:21;;;;;;;0.9;0.6;;;;;;;1.87;68.375;934.8862;;;;
2020/02/28 04:38:46;;;;;;;0.7;0.5;;;;;;;1.95;70.02051;935.2628;;;;
2020/02/28 04:41:11;;;;;;;2.9;0.9;;;;;;;2.13;70.9707;935.4597;;;;
2020/02/28 04:43:36;;;;;;;0.9;0.6;;;;;;;1.79;67.27734;935.3429;;;;
2020/02/28 04:46:02;;;;;;;0.6;0.5;;;;;;;1.86;67.47852;935.5248;;;;
2020/02/28 04:48:27;;;;;;;1;0.7;;;;;;;1.87;71.3291;935.5195;;;;
2020/02/28 04:50:52;;;;;;;1.7;0.8;;;;;;;1.81;69.81934;935.5488;;;;
2020/02/28 04:53:17;;;;;;;1.7;1.1;;;;;;;2.02;69.08105;935.5458;;;;
2020/02/28 04:55:42;;;;;;;1.5;0.7;;;;;;;2.09;67.2666;935.6897;;;;
2020/02/28 04:58:07;;;;;;;1.5;0.6;;;;;;;2.02;63.97852;935.5531;;;;
2020/02/28 05:00:37;;;;;;;1.7;0.6;;;;;;;1.99;66.06641;935.6394;;;;
2020/02/28 05:02:57;;;;;;;1.2;0.7;;;;;;;1.9;70.93066;935.7281;;;;
2020/02/28 05:05:23;;;;;;;1.6;0.7;;;;;;;1.92;69.82617;935.9573;;;;
2020/02/28 05:07:48;;;;;;;1.2;0.6;;;;;;;1.96;67.34961;936.1105;;;;
2020/02/28 05:10:13;;;;;;;2.8;0.8;;;;;;;2.27;70.16406;936.244;;;;
2020/02/28 05:12:40;;;;;;;1.4;0.7;;;;;;;2.03;74.76855;936.4163;;;;
2020/02/28 05:15:03;;;;;;;1.8;0.7;;;;;;;2;77.07031;936.4242;;;;
2020/02/28 05:17:28;;;;;;;0.9;0.7;;;;;;;1.5;80.77832;936.3876;;;;
2020/02/28 05:19:53;;;;;;;1.2;0.6;;;;;;;1.35;82.7627;936.7297;;;;
2020/02/28 05:22:19;;;;;;;1.3;0.6;;;;;;;1.46;82.91992;936.7408;;;;
2020/02/28 05:24:45;;;;;;;0.7;0.5;;;;;;;1.37;83.54883;936.9295;;;;
2020/02/28 05:27:09;;;;;;;1.5;0.5;;;;;;;1.31;84.01855;937.0064;;;;
2020/02/28 05:29:34;;;;;;;1.8;0.5;;;;;;;1.33;84.16895;937.0106;;;;
2020/02/28 05:31:59;;;;;;;0.4;0.4;;;;;;;1.56;83.78711;937.2303;;;;
2020/02/28 05:34:25;;;;;;;1.2;0.6;;;;;;;1.42;83.97266;937.1094;;;;
2020/02/28 05:36:50;;;;;;;1.6;0.8;;;;;;;1.4;83.58789;937.2767;;;;
2020/02/28 05:39:15;;;;;;;3.2;0.9;;;;;;;1.5;82.35645;937.1731;;;;
2020/02/28 05:41:40;;;;;;;1.6;0.9;;;;;;;1.57;81.67578;937.1767;;;;
2020/02/28 05:44:06;;;;;;;0.9;0.6;;;;;;;1.24;81.56641;937.1358;;;;
2020/02/28 05:46:32;;;;;;;2;0.9;;;;;;;1.26;81.8623;937.1708;;;;
2020/02/28 05:48:57;;;;;;;1.4;0.9;;;;;;;1.5;82.05273;937.4186;;;;
2020/02/28 05:51:22;;;;;;;1.2;0.9;;;;;;;1.57;81.55273;937.3635;;;;
2020/02/28 05:53:47;;;;;;;1.6;1.1;;;;;;;1.63;81.56348;937.3959;;;;
2020/02/28 05:56:13;;;;;;;1.8;0.9;;;;;;;1.64;81.20898;937.3989;;;;
2020/02/28 05:58:38;;;;;;;2.1;1.2;;;;;;;1.37;81.62598;937.3265;;;;
2020/02/28 06:01:03;;;;;;;0.8;0.7;;;;;;;1.19;80.38477;937.4128;;;;
2020/02/28 06:03:28;;;;;;;0.8;0.6;;;;;;;1.33;77.9668;937.6114;;;;
2020/02/28 06:05:53;;;;;;;1.4;0.8;;;;;;;1.17;80.50586;937.5656;;;;
2020/02/28 06:08:18;;;;;;;0.8;0.7;;;;;;;1.26;79.1582;937.5209;;;;
2020/02/28 06:10:44;;;;;;;2.7;0.9;;;;;;;1.27;78.67969;937.637;;;;
2020/02/28 06:13:09;;;;;;;1.5;0.8;;;;;;;1.13;80.56445;937.7654;;;;
2020/02/28 06:15:34;;;;;;;2;0.8;;;;;;;1.15;72.86035;937.7146;;;;
2020/02/28 06:17:59;;;;;;;1.4;0.7;;;;;;;1.46;68.58887;937.8847;;;;
2020/02/28 06:20:24;;;;;;;3.9;1;;;;;;;1.64;70.49609;937.8767;;;;
2020/02/28 06:22:50;;;;;;;1.4;0.8;;;;;;;1.56;72.99805;938.0605;;;;
2020/02/28 06:25:14;;;;;;;1.2;0.9;;;;;;;1.45;69.43555;937.9154;;;;
2020/02/28 06:27:51;;;;;;;1.3;0.8;;;;;;;1.6;69.41602;937.9842;;;;
2020/02/28 06:30:05;;;;;;;1.3;0.8;;;;;;;1.66;68.87695;937.9606;;;;
2020/02/28 06:32:30;;;;;;;2.6;1;;;;;;;1.82;69.63086;938.287;;;;
2020/02/28 06:34:55;;;;;;;1.9;0.9;;;;;;;1.66;69.04492;938.2801;;;;
2020/02/28 06:37:20;;;;;;;1.8;1;;;;;;;1.82;70.50391;938.3262;;;;
2020/02/28 06:39:45;;;;;;;2.3;1;;;;;;;1.85;72.85742;938.5466;;;;
2020/02/28 06:42:10;;;;;;;3;0.9;;;;;;;2.05;70.45117;938.5715;;;;
2020/02/28 06:44:35;;;;;;;1.8;0.9;;;;;;;2.03;69.97852;938.4635;;;;
2020/02/28 06:47:01;;;;;;;2.6;1.1;;;;;;;1.97;69.01855;938.5563;;;;
2020/02/28 06:49:26;;;;;;;7.4;1.5;;;;;;;2.08;74.08301;938.6837;;;;
2020/02/28 06:51:51;;;;;;;3.7;1.5;;;;;;;2.09;74.30078;938.7346;;;;
2020/02/28 06:54:16;;;;;;;3.8;1.3;;;;;;;2.06;72.42285;938.6295;;;;
2020/02/28 06:56:42;;;;;;;2.9;1.1;;;;;;;2.3;70.94141;938.6741;;;;
2020/02/28 06:59:08;;;;;;;3;1.1;;;;;;;2.41;70.66797;938.8187;;;;
2020/02/28 07:01:39;;;;;;;3.1;1.1;;;;;;;2.56;68.88965;938.8044;;;;
2020/02/28 07:03:58;;;;;;;3.1;1.5;;;;;;;2.57;72.44336;938.921;;;;
2020/02/28 07:06:23;;;;;;;5.1;1.9;;;;;;;2.57;73.11621;938.9305;;;;
2020/02/28 07:08:48;;;;;;;2.9;1.1;;;;;;;2.2;69.76074;938.9617;;;;
2020/02/28 07:11:13;;;;;;;2.8;1.1;;;;;;;2.27;72.00098;939.1536;;;;
2020/02/28 07:13:38;;;;;;;3.4;1.1;;;;;;;2.24;70.74219;939.1024;;;;
2020/02/28 07:16:04;;;;;;;4.9;1.4;;;;;;;2.27;72.29199;939.1216;;;;
2020/02/28 07:18:29;;;;;;;2.4;1.2;;;;;;;1.99;72.91602;939.1296;;;;
2020/02/28 07:20:54;;;;;;;2.8;1.2;;;;;;;1.93;74.4043;939.1326;;;;
2020/02/28 07:23:19;;;;;;;3.6;1.1;;;;;;;2.24;73.35156;939.1761;;;;
2020/02/28 07:25:44;;;;;;;2.9;1.2;;;;;;;2.36;73.41602;939.2267;;;;
2020/02/28 07:28:10;;;;;;;2.3;1.2;;;;;;;2.43;73.31738;939.2888;;;;
2020/02/28 07:30:35;;;;;;;2.5;1;;;;;;;2.39;71.55957;939.2269;;;;
2020/02/28 07:33:00;;;;;;;2.9;1.1;;;;;;;2.56;71.98242;939.2053;;;;
2020/02/28 07:35:27;;;;;;;2.8;1.1;;;;;;;2.72;70.47461;939.4282;;;;
2020/02/28 07:37:52;;;;;;;1.8;1;;;;;;;2.78;70.19336;939.5706;;;;
2020/02/28 07:40:17;;;;;;;15.6;8.5;;;;;;;2.48;73.58398;939.6248;;;;
2020/02/28 07:42:42;;;;;;;4.5;2.6;;;;;;;2.6;72.80664;939.6343;;;;
2020/02/28 07:45:08;;;;;;;2.9;1.1;;;;;;;2.58;71.10156;939.6912;;;;
2020/02/28 07:47:40;;;;;;;2;0.8;;;;;;;2.52;67.72852;939.6853;;;;
2020/02/28 07:50:05;;;;;;;2.6;1.3;;;;;;;2.76;68.18164;939.7026;;;;
2020/02/28 07:52:30;;;;;;;5.5;2.3;;;;;;;2.83;71.4668;939.7322;;;;
2020/02/28 07:54:55;;;;;;;4.9;2.2;;;;;;;2.67;69.89355;939.7381;;;;
2020/02/28 07:57:20;;;;;;;3.7;1.6;;;;;;;2.75;69.04395;939.7534;;;;
2020/02/28 07:59:46;;;;;;;3.8;2.1;;;;;;;3.04;69.91016;939.7302;;;;
2020/02/28 08:02:12;;;;;;;2.9;1.7;;;;;;;3.08;68.22168;939.7969;;;;
2020/02/28 08:04:36;;;;;;;4.7;1.6;;;;;;;3.19;67.79102;939.7957;;;;
2020/02/28 08:07:02;;;;;;;2.4;1.2;;;;;;;3.25;65.73438;939.8211;;;;
2020/02/28 08:09:27;;;;;;;2.7;1.3;;;;;;;3.38;66.74316;939.8696;;;;
2020/02/28 08:11:52;;;;;;;8.3;4.1;;;;;;;3.55;67.72559;939.8149;;;;
2020/02/28 08:14:17;;;;;;;5.5;2.6;;;;;;;3.46;68.00293;939.8361;;;;
2020/02/28 08:16:42;;;;;;;4;2.4;;;;;;;3.36;65.87598;939.843;;;;
2020/02/28 08:19:07;;;;;;;2.3;1.5;;;;;;;3.42;66.15527;939.903;;;;
2020/02/28 08:21:32;;;;;;;3.2;1.8;;;;;;;3.27;66.5459;939.8093;;;;
2020/02/28 08:23:59;;;;;;;2.7;1.5;;;;;;;2.97;68.24902;939.9833;;;;
2020/02/28 08:26:24;;;;;;;3.3;1.7;;;;;;;3.28;67.14355;939.9373;;;;
2020/02/28 08:28:48;;;;;;;3.4;1.8;;;;;;;3.67;66.10352;940.0204;;;;
2020/02/28 08:31:13;;;;;;;3;1.5;;;;;;;4.08;65.25684;940.0995;;;;
2020/02/28 08:33:44;;;;;;;1.8;1.1;;;;;;;4.39;64.40332;940.1677;;;;
2020/02/28 08:36:06;;;;;;;3.9;1.4;;;;;;;4.16;64.48145;940.1559;;;;
2020/02/28 08:38:33;;;;;;;3.3;1.2;;;;;;;4.18;63.43848;940.0432;;;;
2020/02/28 08:40:59;;;;;;;3.4;2.2;;;;;;;4.43;63.36328;940.2908;;;;
2020/02/28 08:43:25;;;;;;;5.9;3.5;;;;;;;4.78;63.58203;940.2581;;;;
2020/02/28 08:45:49;;;;;;;4;2.3;;;;;;;4.97;60.15332;940.3273;;;;
2020/02/28 08:48:14;;;;;;;4.7;2.2;;;;;;;4.96;62.66211;940.3394;;;;
2020/02/28 08:50:40;;;;;;;3.8;1.9;;;;;;;4.55;63.60645;940.3983;;;;
2020/02/28 08:53:10;;;;;;;3.6;1.6;;;;;;;4.24;63.33398;940.4688;;;;
2020/02/28 08:55:32;;;;;;;4.6;1.8;;;;;;;4.12;63.23633;940.4539;;;;
2020/02/28 08:57:57;;;;;;;5.1;2.1;;;;;;;4.13;65.86035;940.5103;;;;
2020/02/28 09:00:22;;;;;;;2.4;1.7;;;;;;;4.16;65.67285;940.5947;;;;
2020/02/28 09:02:47;;;;;;;3;1.7;;;;;;;4.16;63.98535;940.6301;;;;
2020/02/28 09:05:12;;;;;;;3.7;1.5;;;;;;;4.37;64.74805;940.5884;;;;
2020/02/28 09:07:37;;;;;;;3.8;1.5;;;;;;;4.47;63.98828;940.6697;;;;
2020/02/28 09:10:02;;;;;;;10.1;2.2;;;;;;;4.48;65.24902;940.6417;;;;
2020/02/28 09:12:27;;;;;;;5.4;2.3;;;;;;;4.44;65.23242;940.6465;;;;
2020/02/28 09:14:52;;;;;;;5.4;2.3;;;;;;;4.05;65.9707;940.7475;;;;
2020/02/28 09:17:18;;;;;;;5.2;2.9;;;;;;;3.93;66.3916;940.7364;;;;
2020/02/28 09:19:44;;;;;;;6.4;2.8;;;;;;;4.4;67.6123;940.8152;;;;
2020/02/28 09:22:10;;;;;;;4.6;2;;;;;;;4.78;66.32129;940.7859;;;;
2020/02/28 09:24:37;;;;;;;2.5;1.2;;;;;;;5.02;60.64258;940.7828;;;;
2020/02/28 09:27:01;;;;;;;3.1;1.3;;;;;;;5.23;62.08301;940.8006;;;;
2020/02/28 09:29:25;;;;;;;3.5;1.5;;;;;;;5.62;60.83008;940.8398;;;;
2020/02/28 09:31:50;;;;;;;3.2;1.5;;;;;;;6.17;60.00293;940.769;;;;
2020/02/28 09:34:21;;;;;;;4.5;1.3;;;;;;;7.67;56.01758;940.69;;;;
2020/02/28 09:36:40;;;;;;;3.5;1;;;;;;;9.33;48.87891;940.6543;;;;
2020/02/28 09:39:06;;;;;;;2;1;;;;;;;10.83;44.21484;940.653;;;;
2020/02/28 09:41:31;;;;;;;2.2;0.9;;;;;;;11.66;41.46191;940.6382;;;;
2020/02/28 09:43:57;;;;;;;2;1;;;;;;;11.96;39.54297;940.627;;;;
2020/02/28 09:46:21;;;;;;;2.7;1.1;;;;;;;12.1;38.18164;940.6012;;;;
2020/02/28 09:48:46;;;;;;;2.6;1.1;;;;;;;11.82;39.90918;940.6418;;;;
2020/02/28 09:51:11;;;;;;;2.5;1;;;;;;;12.72;39.16504;940.5554;;;;
2020/02/28 09:53:37;;;;;;;2.8;1.2;;;;;;;12.42;37.71582;940.6038;;;;
2020/02/28 09:56:02;;;;;;;2.3;1.2;;;;;;;11.83;38.60449;940.5781;;;;
2020/02/28 09:58:28;;;;;;;4;1.5;;;;;;;11.26;40.97852;940.7478;;;;
2020/02/28 10:00:54;;;;;;;3.4;1.3;;;;;;;10.97;40.21973;940.7336;;;;
2020/02/28 10:03:18;;;;;;;3.6;1.4;;;;;;;10.67;40.41895;940.6993;;;;
2020/02/28 10:05:44;;;;;;;4;1.4;;;;;;;10.24;42.15918;940.7742;;;;
2020/02/28 10:08:10;;;;;;;2.4;1.2;;;;;;;9.79;42.62695;940.8375;;;;
2020/02/28 10:10:35;;;;;;;3.6;1.4;;;;;;;9.17;42.65723;940.8146;;;;
2020/02/28 10:13:00;;;;;;;3.1;1.3;;;;;;;8.76;43.33398;940.7681;;;;
2020/02/28 10:15:26;;;;;;;3.7;1.6;;;;;;;8.42;44.59473;940.7227;;;;
2020/02/28 10:17:53;;;;;;;3.2;1.3;;;;;;;8.37;44.94238;940.8317;;;;
2020/02/28 10:20:19;;;;;;;3.7;1.3;;;;;;;8.52;45.61621;940.835;;;;
2020/02/28 10:22:43;;;;;;;3.1;1.3;;;;;;;8.82;43.66895;940.8633;;;;
2020/02/28 10:25:06;;;;;;;4.2;1.4;;;;;;;8.25;42.75977;940.9319;;;;
2020/02/28 10:27:31;;;;;;;5.3;2.2;;;;;;;8.1;43.93652;940.9955;;;;
2020/02/28 10:29:58;;;;;;;3.2;1.4;;;;;;;8.2;46.05859;940.962;;;;
2020/02/28 10:32:23;;;;;;;4.9;1.3;;;;;;;8.18;43.69531;941.0656;;;;
2020/02/28 10:34:48;;;;;;;7.1;3.9;;;;;;;7.94;43.37598;941.0574;;;;
2020/02/28 10:37:13;;;;;;;19.9;9.9;;;;;;;7.55;44.44824;941.0687;;;;
2020/02/28 10:39:39;;;;;;;173.2;94.9;;;;;;;6.51;46.32031;941.0622;;;;
2020/02/28 10:42:04;;;;;;;15.8;10.2;;;;;;;5.5;50.78027;941.0221;;;;
2020/02/28 10:44:29;;;;;;;12.4;8.9;;;;;;;5.73;53.95801;941.067;;;;
2020/02/28 10:46:55;;;;;;;5.6;2.5;;;;;;;6.36;53.81055;941.074;;;;
2020/02/28 10:49:20;;;;;;;7.9;2.5;;;;;;;7.4;52.30957;941.0986;;;;
2020/02/28 10:51:46;;;;;;;4.2;1.7;;;;;;;7.54;50.64941;941.1351;;;;
2020/02/28 10:54:10;;;;;;;5.9;2.1;;;;;;;7.29;50.80078;941.2527;;;;
2020/02/28 10:56:36;;;;;;;3.8;1.4;;;;;;;6.79;50.62891;941.0974;;;;
2020/02/28 10:59:01;;;;;;;3.3;1.3;;;;;;;5.94;51.4668;941.0134;;;;
2020/02/28 11:01:26;;;;;;;3.9;1.5;;;;;;;5.7;54.21484;941.1333;;;;
2020/02/28 11:03:51;;;;;;;4.4;1.5;;;;;;;6.16;53.43555;941.1049;;;;
2020/02/28 11:06:16;;;;;;;2.8;1.3;;;;;;;7.19;51.66211;941.0938;;;;
2020/02/28 11:08:41;;;;;;;4.3;2.1;;;;;;;7.96;45.81836;941.0125;;;;
2020/02/28 11:11:06;;;;;;;2.1;1;;;;;;;7.83;45.43066;941.0428;;;;
2020/02/28 11:13:32;;;;;;;3.7;2;;;;;;;8.98;45.8584;941.0173;;;;
2020/02/28 11:15:57;;;;;;;2.7;1.4;;;;;;;8.67;45.96289;940.9283;;;;
2020/02/28 11:18:22;;;;;;;5.7;1.4;;;;;;;10.11;42.4082;940.9235;;;;
2020/02/28 11:20:47;;;;;;;5;1.3;;;;;;;10.31;38.93652;940.8794;;;;
2020/02/28 11:23:12;;;;;;;1.9;1.2;;;;;;;10.7;36.72168;940.8583;;;;
2020/02/28 11:25:37;;;;;;;2.7;1;;;;;;;9.81;37.62598;940.8052;;;;
2020/02/28 11:28:02;;;;;;;2.3;1.1;;;;;;;10.26;38.31543;940.7712;;;;
2020/02/28 11:30:32;;;;;;;2.9;1.2;;;;;;;11.39;34.52637;940.7802;;;;
2020/02/28 11:35:33;;;;;;;2.2;1;;;;;;;12.16;34.02539;940.7645;;;;
2020/02/28 11:37:43;;;;;;;4.7;1.1;;;;;;;14.01;31.5127;940.6494;;;;
2020/02/28 11:40:08;;;;;;;2.6;1.1;;;;;;;11.52;32.48828;940.7498;;;;
2020/02/28 11:42:33;;;;;;;3.8;1.6;;;;;;;11.09;33.87402;940.759;;;;
2020/02/28 11:44:58;;;;;;;2.7;1.3;;;;;;;10.59;32.16797;940.7553;;;;
2020/02/28 11:47:24;;;;;;;2.2;1.1;;;;;;;10.15;37.88379;940.7642;;;;
2020/02/28 11:49:49;;;;;;;3.5;1.2;;;;;;;10.2;37.87695;940.6647;;;;
2020/02/28 11:52:15;;;;;;;3.2;1.4;;;;;;;11.86;35.90332;940.6541;;;;
2020/02/28 11:54:40;;;;;;;3.3;1.1;;;;;;;12.7;30.3623;940.5657;;;;
2020/02/28 11:57:05;;;;;;;1.6;0.9;;;;;;;13.13;29.59961;940.5656;;;;
2020/02/28 11:59:30;;;;;;;1.6;1;;;;;;;16.41;28.36523;940.4656;;;;
2020/02/28 12:01:56;;;;;;;3.4;1.1;;;;;;;16.93;25.66309;940.4598;;;;
2020/02/28 12:04:21;;;;;;;1.6;0.9;;;;;;;19.3;22.22559;940.4138;;;;
2020/02/28 12:06:46;;;;;;;2.5;0.9;;;;;;;19.29;23.04102;940.3445;;;;
2020/02/28 12:09:11;;;;;;;2.2;0.7;;;;;;;19.59;20.34082;940.3283;;;;
2020/02/28 12:11:36;;;;;;;2.2;1;;;;;;;19.99;20.4873;940.3301;;;;
2020/02/28 12:14:01;;;;;;;1.3;0.8;;;;;;;20.58;21.16895;940.1802;;;;
2020/02/28 12:16:27;;;;;;;2.5;1;;;;;;;21.2;20.96484;940.1705;;;;
2020/02/28 12:18:53;;;;;;;2.9;2.1;;;;;;;18.17;21.2041;940.0893;;;;
2020/02/28 12:21:18;;;;;;;3;1.7;;;;;;;17.44;23.02539;940.051;;;;
2020/02/28 12:23:43;;;;;;;2.1;1.3;;;;;;;16.63;23.91992;940.05;;;;
2020/02/28 12:26:09;;;;;;;3.7;1.3;;;;;;;19.18;22.58105;939.8459;;;;
2020/02/28 12:28:34;;;;;;;3.3;1.5;;;;;;;20.49;20.125;939.8589;;;;
2020/02/28 12:30:59;;;;;;;1.4;0.8;;;;;;;22.38;17.60645;939.7891;;;;
2020/02/28 12:33:25;;;;;;;2.9;1.1;;;;;;;22.78;17.30566;939.7654;;;;
2020/02/28 12:35:50;;;;;;;2.7;1.3;;;;;;;22.71;17.2793;939.7656;;;;
2020/02/28 12:38:15;;;;;;;2.1;1.1;;;;;;;24.71;16.93262;939.7213;;;;
2020/02/28 12:40:40;;;;;;;8.7;5.9;;;;;;;24.31;13.5127;939.7288;;;;
2020/02/28 12:43:05;;;;;;;54.8;36.7;;;;;;;20.72;16.36035;939.6675;;;;
2020/02/28 12:45:35;;;;;;;131.2;83.9;;;;;;;20.91;17.37402;939.5678;;;;
2020/02/28 12:48:01;;;;;;;34.6;21.9;;;;;;;21.78;18.13379;939.553;;;;
2020/02/28 12:50:21;;;;;;;18.5;11.7;;;;;;;23.45;16.02637;939.5499;;;;
2020/02/28 12:52:45;;;;;;;2.1;1;;;;;;;21.82;16.24902;939.5446;;;;
2020/02/28 12:55:10;;;;;;;2.1;0.9;;;;;;;20.42;16.875;939.4995;;;;
2020/02/28 12:57:36;;;;;;;3.5;2.1;;;;;;;19.79;20.38477;939.5183;;;;
2020/02/28 13:00:01;;;;;;;2.1;1.1;;;;;;;19.26;20.46484;939.5103;;;;
2020/02/28 13:02:26;;;;;;;1.5;0.8;;;;;;;21.73;19.32617;939.3853;;;;
2020/02/28 13:04:51;;;;;;;1.6;0.8;;;;;;;22.55;17.76563;939.3245;;;;
2020/02/28 13:07:17;;;;;;;9.7;7;;;;;;;19.44;17.51367;939.3506;;;;
2020/02/28 13:09:43;;;;;;;24.8;16.2;;;;;;;18.73;19.46387;939.355;;;;
2020/02/28 13:12:08;;;;;;;7.7;5.1;;;;;;;18.51;21.41895;939.3039;;;;
2020/02/28 13:14:33;;;;;;;2.8;1.6;;;;;;;21.11;19.80176;939.1933;;;;
2020/02/28 13:16:58;;;;;;;12.8;9.6;;;;;;;22.08;17.0791;939.2141;;;;
2020/02/28 13:19:23;;;;;;;64.6;38.8;;;;;;;20.36;17.35156;939.2784;;;;
2020/02/28 13:21:49;;;;;;;11;9.4;;;;;;;15.57;21.40332;939.2892;;;;
2020/02/28 13:24:14;;;;;;;4.9;2.6;;;;;;;16.57;20.71094;939.2392;;;;
2020/02/28 13:26:39;;;;;;;15.6;14;;;;;;;16.38;20.23926;939.2322;;;;
2020/02/28 13:29:05;;;;;;;5.7;4.7;;;;;;;16.02;20.96289;939.2205;;;;
2020/02/28 13:31:29;;;;;;;3.2;2.5;;;;;;;17.28;19.74707;939.1691;;;;
2020/02/28 13:33:54;;;;;;;5.5;3.3;;;;;;;14.06;21.73242;939.2172;;;;
2020/02/28 13:36:19;;;;;;;3.1;1.5;;;;;;;14.9;24.3916;939.2377;;;;
2020/02/28 13:38:45;;;;;;;1.6;1;;;;;;;16.87;21.69824;939.274;;;;
2020/02/28 13:41:10;;;;;;;2.6;1.5;;;;;;;17.14;22.26758;939.2297;;;;
2020/02/28 13:43:35;;;;;;;2.6;1.3;;;;;;;19.4;19.19043;939.2188;;;;
2020/02/28 13:46:00;;;;;;;1.3;0.9;;;;;;;19.69;19.56348;939.2961;;;;
2020/02/28 13:48:25;;;;;;;1.9;0.8;;;;;;;19.76;18.64551;939.233;;;;
2020/02/28 13:50:50;;;;;;;1.5;0.8;;;;;;;21.83;16.51855;939.1042;;;;
2020/02/28 13:53:15;;;;;;;2;0.9;;;;;;;22.7;14.80176;939.127;;;;
2020/02/28 13:55:41;;;;;;;2;1.1;;;;;;;20.69;16.38281;939.0947;;;;
2020/02/28 13:58:06;;;;;;;2.1;0.9;;;;;;;19.75;18.08594;939.1322;;;;
2020/02/28 14:00:31;;;;;;;3.4;1;;;;;;;18.78;17.83691;939.0485;;;;
2020/02/28 14:02:56;;;;;;;2.4;1.1;;;;;;;17.48;20.37109;938.933;;;;
2020/02/28 14:05:21;;;;;;;2;1;;;;;;;14.48;22.33984;939.038;;;;
2020/02/28 14:07:46;;;;;;;2.2;1.1;;;;;;;14.37;23.98242;938.9489;;;;
2020/02/28 14:10:12;;;;;;;1.6;1.1;;;;;;;15.27;24.29688;938.9744;;;;
2020/02/28 14:12:37;;;;;;;2.2;1.1;;;;;;;17.01;22.0293;938.8184;;;;
2020/02/28 14:15:02;;;;;;;1;0.8;;;;;;;16.1;20.72266;938.8463;;;;
2020/02/28 14:17:27;;;;;;;1.9;0.8;;;;;;;14.98;22.81543;938.8074;;;;
2020/02/28 14:19:52;;;;;;;2.3;1.4;;;;;;;16.35;22.36621;938.7906;;;;
2020/02/28 14:22:18;;;;;;;1.6;0.9;;;;;;;16.26;20.28027;938.7997;;;;
2020/02/28 14:24:42;;;;;;;2.5;1;;;;;;;17.17;20.7627;938.7664;;;;
2020/02/28 14:27:08;;;;;;;3.4;1.6;;;;;;;15.91;22.03223;938.7788;;;;
2020/02/28 14:29:32;;;;;;;2.1;0.8;;;;;;;15.25;22.22949;938.7699;;;;
2020/02/28 14:31:58;;;;;;;2.5;0.9;;;;;;;15.88;22.13477;938.7791;;;;
2020/02/28 14:34:23;;;;;;;1.5;0.8;;;;;;;15.92;20.63379;938.7466;;;;
2020/02/28 14:36:50;;;;;;;2.9;1.4;;;;;;;15.74;22.05762;938.741;;;;
2020/02/28 14:39:15;;;;;;;2.2;1;;;;;;;16.55;21.02246;938.7056;;;;
2020/02/28 14:41:41;;;;;;;2.6;1.1;;;;;;;17.74;20.77734;938.7076;;;;
2020/02/28 14:44:06;;;;;;;2.6;1.3;;;;;;;17.95;20.28809;938.7034;;;;
2020/02/28 14:46:31;;;;;;;4.9;1.7;;;;;;;18.02;20.89551;938.7191;;;;
2020/02/28 14:48:56;;;;;;;3.4;1.2;;;;;;;18.4;20.45996;938.7389;;;;
2020/02/28 14:51:21;;;;;;;3.5;1.7;;;;;;;16.92;20.61133;938.6911;;;;
2020/02/28 14:53:46;;;;;;;2.2;0.9;;;;;;;16.78;20.77832;938.6429;;;;
2020/02/28 14:56:11;;;;;;;1.9;1;;;;;;;16.31;22.33008;938.6022;;;;
2020/02/28 14:58:36;;;;;;;2.6;1.7;;;;;;;16.11;22.18066;938.5165;;;;
2020/02/28 15:01:01;;;;;;;1.3;0.8;;;;;;;14.98;21.75488;938.5219;;;;
2020/02/28 15:03:32;;;;;;;1.3;0.8;;;;;;;13.18;23.91602;938.52;;;;
2020/02/28 15:05:54;;;;;;;3.4;0.7;;;;;;;13.44;26.01172;938.4292;;;;
2020/02/28 15:08:17;;;;;;;1.7;0.9;;;;;;;12.54;25.18945;938.3959;;;;
2020/02/28 15:11:07;;;;;;;2;0.9;;;;;;;11.77;26.74707;938.3727;;;;
2020/02/28 15:13:35;;;;;;;1.2;0.8;;;;;;;11.67;26.03125;938.3571;;;;
2020/02/28 15:16:01;;;;;;;2.1;1.1;;;;;;;12.13;27.38867;938.2578;;;;
2020/02/28 15:18:22;;;;;;;2;0.9;;;;;;;11.61;29.71289;938.3324;;;;